• Join FlightAware (Why Join?)
  • Login
  • US Flag 
04:55PM EST


 

Airport Tracker/Info


-or-


 

Live Flight TrackerFlight Track Log ✈ CCA1546 ✈ 07-Oct-2013 ✈ ZSYT / YNT - ZBAA / PEK

Flight Track Log - Related Links

Times and Time Zones

All times are in EDT time to prevent confusion due to time zone crossing. See the CCA1546 flight status page for this flight to view local times or setup timezone preferences in your user account.

Time Position Orientation Groundspeed Altitude Reporting Facility
EDT Latitude Longitude Course Direction KTS MPH feet Rate Location/Type
02:14AM 37.5927 121.0527 307° West  Level Estimated
02:15AM 37.6403 120.9726 307° West  Level Estimated
02:16AM 37.6878 120.8925 307° West  Level Estimated
02:17AM 37.7353 120.8123 307° West  Level Estimated
02:18AM 37.7828 120.7320 307° West  Level Estimated
02:19AM 37.8302 120.6516 307° West  Level Estimated
02:20AM 37.8775 120.5711 307° West  Level Estimated
02:21AM 37.9248 120.4904 307° West  Level Estimated
02:22AM 37.9720 120.4097 307° West  Level Estimated
02:23AM 38.0192 120.3289 307° West  Level Estimated
02:24AM 38.0663 120.2479 306° West  Level Estimated
02:25AM 38.1134 120.1669 306° West  Level Estimated
02:26AM 38.1604 120.0857 306° West  Level Estimated
02:27AM 38.2073 120.0045 306° West  Level Estimated
02:28AM 38.2542 119.9231 306° West  Level Estimated
02:29AM 38.3010 119.8417 306° West  Level Estimated
02:30AM 38.3478 119.7601 306° West  Level Estimated
02:31AM 38.3946 119.6784 306° West  Level Estimated
02:32AM 38.4412 119.5966 306° West  Level Estimated
02:33AM 38.4878 119.5148 306° West  Level Estimated
02:34AM 38.5344 119.4328 306° West  Level Estimated
02:35AM 38.5809 119.3507 306° West  Level Estimated
02:36AM 38.6273 119.2685 306° West  Level Estimated
02:37AM 38.6737 119.1862 306° West  Level Estimated
02:38AM 38.7200 119.1037 306° West  Level Estimated
02:39AM 38.7663 119.0212 306° West  Level Estimated
02:40AM 38.8125 118.9386 306° West  Level Estimated
02:41AM 38.8587 118.8559 306° West  Level Estimated
02:42AM 38.9048 118.7730 306° West  Level Estimated
02:43AM 38.9508 118.6901 306° West  Level Estimated
02:44AM 38.9968 118.6070 305° West  Level Estimated
02:45AM 39.0427 118.5238 305° West  Level Estimated
02:46AM 39.0885 118.4406 305° West  Level Estimated
02:47AM 39.1343 118.3572 305° West  Level Estimated
02:48AM 39.1801 118.2737 305° West  Level Estimated
02:49AM 39.2258 118.1901 305° West  Level Estimated
02:50AM 39.2714 118.1064 305° West  Level Estimated
02:51AM 39.3169 118.0226 305° West  Level Estimated
02:52AM 39.3624 117.9386 305° West  Level Estimated
02:53AM 39.4079 117.8546 305° West  Level Estimated
02:54AM 39.4533 117.7704 305° West  Level Estimated
02:55AM 39.4986 117.6862 305° West  Level Estimated
02:56AM 39.5438 117.6018 305° West  Level Estimated
02:57AM 39.5890 117.5173 305° West  Level Estimated
02:58AM 39.6342 117.4327 305° West  Level Estimated
02:59AM 39.6792 117.3480 305° West  Level Estimated
03:00AM 39.7242 117.2632 305° West  Level Estimated
03:01AM 39.7692 117.1783 305° West  Level Estimated
03:02AM 39.8141 117.0933 305° West  Level Estimated
03:03AM 39.8589 117.0081 304° West  Level Estimated
03:04AM 39.9036 116.9229 304° West  Level Estimated
03:05AM 39.9483 116.8375 304° West  Level Estimated
03:06AM 39.9930 116.7521 304° West  Level Estimated
03:07AM 40.0376 116.6665 304° West  Level Estimated
03:08AM 40.0801 116.5846 304° West  Level Estimated
03:09AM 40.0801 116.5846 288° West  Level Estimated
03:10AM 40.0801 116.5846 288° West  Level Estimated
03:11AM 40.0801 116.5846 288° West  Level Estimated
03:12AM 40.0801 116.5846 288° West  Level Estimated
03:13AM 40.0801 116.5846 288° West  Level Estimated
03:14AM 40.0801 116.5846 288° West  Level Estimated
03:15AM 40.0801 116.5846 288° West  Level Estimated
03:16AM 40.0801 116.5846 288° West  Level Estimated
03:17AM 40.0801 116.5846 288° West  Level Estimated
03:18AM 40.0801 116.5846 288° West  Level Estimated